This is the latest recevied weather packets stored in our database for station/object VK2BLR. If no packets are shown the sender has not sent any weather packets the latest 10 day(s).
| Time | Temp. | Humidity | Pressure | Rain* | Wind** | Luminosity | Snow |
|---|---|---|---|---|---|---|---|
| 1787788290 | 18.33° C | 50% | 1025.5 hPa | 0 mm | - | - | - |
| 1787787391 | 18.33° C | 52% | 1025.6 hPa | 0 mm | - | - | - |
| 1787786491 | 17.78° C | 53% | 1025.5 hPa | 0 mm | - | - | - |
| 1787785591 | 17.22° C | 60% | 1025.4 hPa | 0 mm | - | - | - |
| 1787784690 | 16.67° C | 60% | 1025.3 hPa | 0 mm | - | - | - |
| 1787783790 | 16.11° C | 63% | 1025.1 hPa | 0 mm | - | - | - |
| 1787782892 | 16.11° C | 67% | 1025.2 hPa | 0 mm | - | - | - |
| 1787781991 | 15° C | 72% | 1025 hPa | 0 mm | - | - | - |
| 1787781090 | 13.89° C | 82% | 1024.7 hPa | 0 mm | - | - | - |
| 1787780191 | 11.67° C | 93% | 1024.5 hPa | 0.25 mm | - | - | - |
| 1787779292 | 9.44° C | 93% | 1024.4 hPa | 0.25 mm | - | - | - |
| 1787778391 | 7.22° C | 94% | 1024 hPa | 0.25 mm | - | - | - |
| 1787777491 | 6.67° C | 93% | 1023.9 hPa | 0.25 mm | - | - | - |
| 1787776591 | 6.67° C | 93% | 1023.9 hPa | 0 mm | - | - | - |
| 1787775690 | 6.67° C | 93% | 1023.8 hPa | 0 mm | - | - | - |
| 1787774791 | 6.67° C | 93% | 1023.6 hPa | 0 mm | - | - | - |
| 1787773892 | 6.67° C | 92% | 1023.6 hPa | 0 mm | - | - | - |
| 1787772992 | 6.67° C | 92% | 1023.7 hPa | 0 mm | - | - | - |
| 1787772091 | 6.67° C | 92% | 1023.6 hPa | 0 mm | - | - | - |
| 1787771191 | 7.22° C | 92% | 1023.6 hPa | 0 mm | - | - | - |
| 1787770292 | 6.67° C | 92% | 1023.4 hPa | 0 mm | - | - | - |
| 1787769392 | 7.22° C | 92% | 1023.3 hPa | 0 mm | - | - | - |
| 1787768491 | 6.67° C | 91% | 1023.2 hPa | 0 mm | - | - | - |
| 1787767592 | 6.67° C | 91% | 1023.2 hPa | 0 mm | - | - | - |
| 1787766691 | 6.67° C | 91% | 1023.1 hPa | 0 mm | - | - | - |
* Rain latest hour (hover to see other rain measurements)
** Current wind speed in m/s (hover to see current wind gust speed)